Main page
METAR-TAF:

METAR-TAF

Airports :

Kirkwall, Scotland

Kirkwall Airport

latitude: 58-57N, longitude: 002-54W, elevation: 21 m

Current weather observation

The report was made 34 minutes ago, at 18:20 UTC
Wind 3 kt from the Southeast
Temperature 8°C
Humidity 87%
Pressure 1027 hPa
Visibility 10 km or more
no clouds below 1500 m and no cumulonimbus

METAR: EGPA 261820Z 14003KT CAVOK 08/06 Q1027

Time: 19:54 (18:54 UTC)

Forecast

The report was made 1 hour and 51 minutes ago, at 17:03 UTC
Forecast valid from 26 at 18 UTC to 27 at 03 UTC
Wind 5 kt from the South/Southeast
Visibility 10 km or more
Few clouds at a height of 2500 ft

TAF: EGPA 261703Z 2618/2703 15005KT 9999 FEW025

Weather observations and forecasts of more than 4000 airports (METAR and TAF reports).

The available stations are represented by yellow and red dots on the map.

Hover mouse over dot to see the name of the station.

Then click to see weather observations and forecasts.

To change the map : click on the green buttons with a black cross to zoom in, on the green button with a dash to zoom out, or on the green arrows for adjacent maps.


METAR-TAF: